Time;durP1;ratioP1;P1;durP2;ratioP2;P2;SDS_P1;SDS_P2;PMS_P1;PMS_P2;Temp;Humidity;BMP_temperature;BMP_pressure;BME280_temperature;BME280_humidity;BME280_pressure;Samples;Min_cycle;Max_cycle;Signal;HPM_P1;HPM_P2
2021/11/22 00:01:09;;;;;;;;;;;;;;;;;;;;;
2021/11/22 00:04:23;;;;;;;9.93;5.17;;;8.00;99.90;;;;;;4900278;29;20513;-83
2021/11/22 00:07:30;;;;;;;9.77;4.27;;;8.00;99.90;;;;;;4903768;29;20459;-83
2021/11/22 00:09:57;;;;;;;4.53;3.90;;;8.10;99.90;;;;;;4889436;29;20474;-84
2021/11/22 00:12:26;;;;;;;5.70;4.47;;;8.00;99.90;;;;;;4887056;29;20466;-84
2021/11/22 00:15:05;;;;;;;6.97;4.10;;;8.00;99.90;;;;;;4948125;28;20539;-83
2021/11/22 00:17:34;;;;;;;13.10;3.87;;;8.00;99.90;;;;;;4942380;28;20477;-83
2021/11/22 00:20:05;;;;;;;11.57;5.00;;;8.00;99.90;;;;;;4941088;28;20533;-83
2021/11/22 00:22:32;;;;;;;9.70;4.70;;;7.90;99.90;;;;;;4940446;28;20572;-82
2021/11/22 00:25:27;;;;;;;6.90;4.60;;;7.90;99.90;;;;;;4943260;28;20511;-84
2021/11/22 00:27:54;;;;;;;6.33;4.47;;;7.90;99.90;;;;;;4960177;28;20459;-83
2021/11/22 00:30:21;;;;;;;6.57;4.13;;;8.00;99.90;;;;;;4939788;28;20470;-84
2021/11/22 00:32:48;;;;;;;17.43;5.43;;;7.90;99.90;;;;;;4933237;28;20457;-81
2021/11/22 00:35:16;;;;;;;5.47;4.53;;;7.90;99.90;;;;;;4919243;28;20475;-83
2021/11/22 00:37:55;;;;;;;9.70;3.73;;;7.80;99.90;;;;;;4936810;28;21970;-82
2021/11/22 00:40:22;;;;;;;9.87;4.77;;;7.90;99.90;;;;;;4939893;28;20563;-83
2021/11/22 00:43:09;;;;;;;4.73;4.20;;;7.90;99.90;;;;;;4936736;28;20476;-83
2021/11/22 00:49:17;;;;;;;8.33;5.23;;;7.90;99.90;;;;;;4918008;28;20520;-83
2021/11/22 00:51:43;;;;;;;10.90;4.50;;;7.90;99.90;;;;;;4944206;28;20551;-85
2021/11/22 00:54:10;;;;;;;6.93;4.57;;;7.80;99.90;;;;;;4941061;28;20461;-81
2021/11/22 00:56:59;;;;;;;15.07;4.93;;;7.70;99.90;;;;;;4937433;28;20474;-81
2021/11/22 00:59:26;;;;;;;9.07;4.53;;;7.60;99.90;;;;;;4987364;23;20501;-82
2021/11/22 01:01:55;;;;;;;8.43;4.57;;;7.80;99.90;;;;;;4901275;29;20496;-82
2021/11/22 01:04:25;;;;;;;7.50;4.77;;;7.70;99.90;;;;;;4907974;29;20506;-81
2021/11/22 01:06:52;;;;;;;12.77;4.30;;;7.90;99.90;;;;;;4904276;29;20464;-82
2021/11/22 01:09:19;;;;;;;9.40;4.50;;;7.70;99.90;;;;;;4899752;29;20562;-81
2021/11/22 01:11:46;;;;;;;11.03;4.60;;;7.80;99.90;;;;;;4886244;29;20474;-83
2021/11/22 01:14:18;;;;;;;7.07;4.40;;;7.70;99.90;;;;;;4889433;29;20474;-81
2021/11/22 01:16:48;;;;;;;11.63;4.67;;;7.70;99.90;;;;;;4890590;29;20467;-84
2021/11/22 01:19:18;;;;;;;10.13;4.70;;;7.60;99.90;;;;;;4885596;29;21033;-85
2021/11/22 01:24:59;;;;;;;8.90;4.83;;;7.60;99.90;;;;;;4888814;29;20997;-83
2021/11/22 01:28:04;;;;;;;6.93;4.53;;;7.60;99.90;;;;;;4880920;29;20481;-83
2021/11/22 01:30:34;;;;;;;13.10;4.80;;;7.40;99.90;;;;;;4881294;29;20986;-84
2021/11/22 01:33:01;;;;;;;7.07;4.40;;;7.30;99.90;;;;;;4885279;29;20462;-82
2021/11/22 01:35:34;;;;;;;7.57;4.37;;;7.40;99.90;;;;;;4883495;29;20471;-83
2021/11/22 01:38:01;;;;;;;9.10;5.07;;;7.40;99.90;;;;;;4874067;29;20479;-85
2021/11/22 01:40:31;;;;;;;10.17;5.17;;;7.40;99.90;;;;;;4880813;29;20497;-83
2021/11/22 01:42:58;;;;;;;12.30;5.80;;;7.60;99.90;;;;;;4879789;29;20499;-82
2021/11/22 01:45:36;;;;;;;11.73;6.17;;;7.70;99.90;;;;;;4879582;29;20475;-83
2021/11/22 01:48:13;;;;;;;9.53;6.57;;;7.90;99.90;;;;;;4879650;29;20850;-83
2021/11/22 01:50:41;;;;;;;12.23;7.10;;;8.10;99.90;;;;;;4920937;23;20508;-82
2021/11/22 01:53:09;;;;;;;7.70;6.80;;;8.30;99.90;;;;;;4900114;29;20791;-84
2021/11/22 01:55:38;;;;;;;11.83;7.03;;;8.30;99.90;;;;;;4912784;28;20912;-84
2021/11/22 01:58:05;;;;;;;11.03;7.00;;;8.20;99.90;;;;;;4916096;28;22380;-83
2021/11/22 02:00:42;;;;;;;10.90;7.70;;;8.40;99.90;;;;;;4902659;29;20495;-85
2021/11/22 02:03:10;;;;;;;10.40;7.30;;;8.30;99.90;;;;;;4898656;29;20479;-83
2021/11/22 02:05:37;;;;;;;9.83;8.00;;;8.40;99.90;;;;;;4898508;29;20477;-85
2021/11/22 02:08:05;;;;;;;10.17;7.50;;;8.30;99.90;;;;;;4899859;29;21855;-86
2021/11/22 02:10:32;;;;;;;10.47;7.40;;;8.10;99.90;;;;;;4912824;28;20485;-86
2021/11/22 02:12:59;;;;;;;10.27;7.47;;;8.10;99.90;;;;;;4894255;29;20465;-83
2021/11/22 02:15:26;;;;;;;11.83;6.60;;;8.10;99.90;;;;;;4898650;29;20463;-83
2021/11/22 02:17:56;;;;;;;7.87;6.30;;;8.10;99.90;;;;;;4898546;29;20539;-83
2021/11/22 02:20:29;;;;;;;18.17;6.90;;;8.10;99.90;;;;;;4912021;28;20485;-83
2021/11/22 02:22:59;;;;;;;7.70;5.00;;;8.00;99.90;;;;;;4894250;29;20838;-83
2021/11/22 02:25:28;;;;;;;8.17;6.13;;;8.00;99.90;;;;;;4897893;29;20466;-83
2021/11/22 02:27:57;;;;;;;7.57;6.17;;;8.00;99.90;;;;;;4897350;29;20570;-83
2021/11/22 02:30:34;;;;;;;9.07;6.33;;;8.00;99.90;;;;;;4912258;28;20469;-83
2021/11/22 02:33:04;;;;;;;10.67;6.10;;;8.00;99.90;;;;;;4911487;28;20483;-82
2021/11/22 02:35:32;;;;;;;12.90;6.20;;;8.00;99.90;;;;;;4912540;28;20959;-82
2021/11/22 02:38:24;;;;;;;9.70;5.97;;;8.00;99.90;;;;;;4899873;29;20456;-84
2021/11/22 02:40:51;;;;;;;11.37;6.30;;;8.00;99.90;;;;;;4906351;28;20489;-84
2021/11/22 02:43:21;;;;;;;7.57;6.37;;;8.10;99.90;;;;;;4906090;28;20485;-82
2021/11/22 02:46:03;;;;;;;8.60;5.60;;;8.10;99.90;;;;;;4897719;29;20492;-82
2021/11/22 02:48:30;;;;;;;11.80;6.87;;;8.10;99.90;;;;;;4911004;29;20488;-83
2021/11/22 02:51:06;;;;;;;9.33;6.30;;;8.00;99.90;;;;;;4989189;23;20508;-83
2021/11/22 02:53:33;;;;;;;10.50;7.10;;;8.10;99.90;;;;;;4903440;29;20472;-81
2021/11/22 02:56:09;;;;;;;10.90;7.27;;;8.20;99.90;;;;;;4924316;29;20490;-84
2021/11/22 02:58:38;;;;;;;14.13;7.97;;;8.10;99.90;;;;;;4816234;28;20969;-83
2021/11/22 03:01:17;;;;;;;14.80;7.80;;;8.10;99.90;;;;;;4898100;29;20802;-83
2021/11/22 03:03:44;;;;;;;12.50;7.53;;;8.00;99.90;;;;;;4911151;28;21732;-83
2021/11/22 03:06:14;;;;;;;10.33;7.53;;;7.90;99.90;;;;;;4893728;28;20453;-81
2021/11/22 03:08:42;;;;;;;12.87;8.27;;;7.90;99.90;;;;;;4912259;28;20847;-83
2021/11/22 03:14:46;;;;;;;12.37;9.13;;;8.20;99.90;;;;;;4856296;29;20502;-84
2021/11/22 03:17:13;;;;;;;15.40;10.10;;;8.20;99.90;;;;;;4841634;29;20476;-84
2021/11/22 03:19:45;;;;;;;14.83;10.07;;;8.30;99.90;;;;;;4964218;23;20520;-83
2021/11/22 03:23:05;;;;;;;19.17;10.53;;;8.20;99.90;;;;;;4927767;28;20460;-85
2021/11/22 03:25:31;;;;;;;19.10;11.97;;;8.30;99.90;;;;;;4876187;28;22320;-84
2021/11/22 03:27:58;;;;;;;18.90;12.07;;;8.40;99.90;;;;;;4941144;28;20767;-83
2021/11/22 03:30:34;;;;;;;17.80;11.80;;;8.30;99.90;;;;;;4951366;28;20508;-84
2021/11/22 03:33:01;;;;;;;18.70;11.13;;;8.30;99.90;;;;;;4944909;28;20441;-85
2021/11/22 03:35:28;;;;;;;17.43;11.17;;;8.30;99.90;;;;;;4831320;28;22808;-82
2021/11/22 03:37:58;;;;;;;20.27;11.83;;;8.40;99.90;;;;;;4926077;28;20456;-83
2021/11/22 03:40:26;;;;;;;13.70;10.80;;;8.40;99.90;;;;;;4928296;28;20485;-82
2021/11/22 03:43:24;;;;;;;16.33;11.10;;;8.30;99.90;;;;;;4926233;28;20451;-82
2021/11/22 03:45:55;;;;;;;16.50;11.40;;;8.20;99.90;;;;;;4930515;28;22096;-83
2021/11/22 03:48:22;;;;;;;17.90;11.43;;;8.10;99.90;;;;;;4927272;28;20457;-83
2021/11/22 03:51:15;;;;;;;16.43;11.87;;;8.30;99.90;;;;;;4928579;28;20826;-84
2021/11/22 03:53:42;;;;;;;17.27;13.23;;;8.40;99.90;;;;;;4932387;28;21019;-85
2021/11/22 03:56:21;;;;;;;18.33;13.30;;;8.50;99.90;;;;;;4927443;28;20459;-82
2021/11/22 03:58:51;;;;;;;20.23;13.00;;;8.60;99.90;;;;;;4929446;28;20578;-82
2021/11/22 04:01:25;;;;;;;17.77;12.47;;;8.50;99.90;;;;;;4945054;28;20745;-82
2021/11/22 04:04:01;;;;;;;20.03;13.80;;;8.50;99.90;;;;;;4930990;28;20498;-83
2021/11/22 04:06:28;;;;;;;23.83;12.97;;;8.50;99.90;;;;;;4933791;28;20451;-83
2021/11/22 04:11:24;;;;;;;17.50;13.00;;;8.50;99.90;;;;;;4984325;23;20976;-84
2021/11/22 04:13:53;;;;;;;17.67;11.97;;;8.40;99.90;;;;;;4895440;29;20484;-84
2021/11/22 04:16:23;;;;;;;17.60;12.63;;;8.30;99.90;;;;;;4911931;28;20464;-84
2021/11/22 04:21:24;;;;;;;16.93;12.20;;;8.30;99.90;;;;;;4939502;23;20549;-82
2021/11/22 04:23:53;;;;;;;17.37;12.37;;;8.60;99.90;;;;;;4902123;29;20481;-83
2021/11/22 04:26:21;;;;;;;15.40;12.40;;;8.60;99.90;;;;;;4920615;29;20497;-85
2021/11/22 04:28:49;;;;;;;17.47;11.77;;;8.50;99.90;;;;;;4903249;29;20472;-87
2021/11/22 04:31:49;;;;;;;15.80;11.30;;;8.40;99.90;;;;;;5105591;23;20505;-83
2021/11/22 04:34:25;;;;;;;18.13;12.67;;;8.60;99.90;;;;;;4983499;28;20448;-85
2021/11/22 04:37:25;;;;;;;18.17;12.90;;;8.40;99.90;;;;;;4986581;28;20447;-84
2021/11/22 04:43:25;;;;;;;18.10;11.87;;;8.50;99.90;;;;;;4998331;28;20485;-85
2021/11/22 04:46:11;;;;;;;15.37;11.30;;;8.30;99.90;;;;;;4985767;28;20476;-84
2021/11/22 04:48:56;;;;;;;14.60;10.50;;;8.30;99.90;;;;;;4978556;28;20496;-84
2021/11/22 04:51:24;;;;;;;13.33;10.50;;;8.30;99.90;;;;;;5001918;28;20455;-85
2021/11/22 04:54:15;;;;;;;14.60;10.60;;;8.30;99.90;;;;;;4981311;28;20682;-85
2021/11/22 04:56:45;;;;;;;15.03;10.00;;;8.30;99.90;;;;;;4984451;28;22171;-85
2021/11/22 04:59:37;;;;;;;11.80;9.40;;;8.30;99.90;;;;;;4984796;28;20461;-84
2021/11/22 05:02:04;;;;;;;15.13;10.20;;;8.20;99.90;;;;;;4981654;28;20460;-82
2021/11/22 05:04:31;;;;;;;9.50;8.30;;;8.30;99.90;;;;;;4996372;28;20490;-84
2021/11/22 05:07:18;;;;;;;10.67;9.07;;;8.20;99.90;;;;;;4980061;28;20453;-84
2021/11/22 05:10:28;;;;;;;10.43;8.07;;;8.40;99.90;;;;;;4996944;28;20483;-83
2021/11/22 05:13:20;;;;;;;12.80;9.73;;;8.40;99.90;;;;;;4999539;28;20460;-85
2021/11/22 05:15:49;;;;;;;16.00;8.77;;;8.30;99.90;;;;;;5015031;28;22565;-82
2021/11/22 05:18:31;;;;;;;13.50;8.80;;;8.30;99.90;;;;;;5021030;28;20480;-84
2021/11/22 05:21:25;;;;;;;10.17;8.63;;;8.30;99.90;;;;;;5021063;28;20473;-84
2021/11/22 05:24:27;;;;;;;10.80;9.03;;;8.40;99.90;;;;;;5017367;28;20487;-84
2021/11/22 05:27:03;;;;;;;10.53;7.90;;;8.40;99.90;;;;;;4985946;28;20464;-82
2021/11/22 05:29:52;;;;;;;9.23;7.83;;;8.40;99.90;;;;;;4974535;28;20489;-85
2021/11/22 05:32:43;;;;;;;10.33;8.47;;;8.60;99.90;;;;;;4991303;28;20879;-84
2021/11/22 05:35:10;;;;;;;9.50;7.90;;;8.50;99.90;;;;;;4982064;28;20471;-84
2021/11/22 05:40:55;;;;;;;11.97;7.20;;;8.20;99.90;;;;;;4995840;28;20569;-84
2021/11/22 05:43:44;;;;;;;10.20;8.17;;;8.40;99.90;;;;;;4976571;28;20938;-84
2021/11/22 05:46:23;;;;;;;10.33;7.23;;;8.40;99.90;;;;;;4962789;28;20460;-87
2021/11/22 05:51:44;;;;;;;10.00;8.20;;;8.90;99.90;;;;;;5112798;23;21246;-84
2021/11/22 05:54:14;;;;;;;13.67;8.00;;;8.80;99.90;;;;;;4924139;28;20477;-85
2021/11/22 05:56:56;;;;;;;9.87;8.50;;;8.90;99.90;;;;;;4926933;28;20526;-84
2021/11/22 05:59:54;;;;;;;10.57;7.90;;;9.00;99.90;;;;;;4920061;28;20484;-84
2021/11/22 06:02:30;;;;;;;9.30;7.30;;;9.00;99.90;;;;;;4866238;28;20809;-83
2021/11/22 06:04:57;;;;;;;8.37;7.43;;;9.00;99.90;;;;;;4922987;28;20721;-85
2021/11/22 06:07:24;;;;;;;7.70;6.47;;;9.00;99.90;;;;;;4946881;28;20473;-85
2021/11/22 06:09:52;;;;;;;8.63;7.83;;;8.80;99.90;;;;;;4939488;28;20925;-83
2021/11/22 06:12:18;;;;;;;11.23;7.87;;;9.00;99.90;;;;;;4924605;28;20561;-84
2021/11/22 06:14:45;;;;;;;8.13;7.03;;;8.90;99.90;;;;;;4938437;28;20478;-84
2021/11/22 06:17:15;;;;;;;8.73;7.00;;;8.90;99.90;;;;;;4938200;28;20464;-85
2021/11/22 06:19:42;;;;;;;7.77;6.70;;;8.70;99.90;;;;;;4974977;23;20550;-86
2021/11/22 06:22:08;;;;;;;7.50;6.57;;;8.70;99.90;;;;;;4939553;28;20456;-85
2021/11/22 06:24:41;;;;;;;7.80;6.70;;;8.70;99.90;;;;;;4941916;28;20491;-83
2021/11/22 06:27:08;;;;;;;7.70;6.67;;;8.90;99.90;;;;;;4846943;28;20471;-84
2021/11/22 06:29:38;;;;;;;13.57;7.93;;;9.00;99.90;;;;;;4935568;28;21442;-84
2021/11/22 06:32:14;;;;;;;7.23;6.53;;;9.10;99.90;;;;;;4940058;28;20615;-86
2021/11/22 06:34:42;;;;;;;8.87;6.60;;;8.90;99.90;;;;;;4953790;28;20517;-82
2021/11/22 06:37:09;;;;;;;7.23;6.47;;;8.90;99.90;;;;;;4937497;28;20448;-83
2021/11/22 06:39:37;;;;;;;8.63;6.10;;;8.90;99.90;;;;;;4997432;23;20494;-83
2021/11/22 06:42:07;;;;;;;10.40;6.50;;;9.00;99.90;;;;;;4937128;28;20456;-83
2021/11/22 06:44:37;;;;;;;8.27;6.67;;;9.10;99.90;;;;;;4936375;28;20495;-84
2021/11/22 06:47:18;;;;;;;6.40;5.80;;;9.00;99.90;;;;;;4938351;28;20443;-83
2021/11/22 06:49:45;;;;;;;6.47;5.87;;;8.70;99.90;;;;;;4933286;28;20547;-83
2021/11/22 06:52:20;;;;;;;7.93;5.87;;;8.80;99.90;;;;;;4936278;28;20472;-83
2021/11/22 06:54:53;;;;;;;7.57;6.77;;;8.90;99.90;;;;;;4934493;28;20475;-85
2021/11/22 06:57:21;;;;;;;6.33;5.73;;;8.70;99.90;;;;;;4941186;28;20531;-83
2021/11/22 06:59:57;;;;;;;7.40;6.27;;;8.50;99.90;;;;;;4937856;28;20471;-83
2021/11/22 07:02:24;;;;;;;6.97;6.27;;;8.40;99.90;;;;;;4932492;28;20864;-84
2021/11/22 07:04:52;;;;;;;7.20;6.50;;;8.40;99.90;;;;;;4942020;28;20483;-83
2021/11/22 07:07:19;;;;;;;7.70;6.67;;;8.50;99.90;;;;;;4942052;28;20467;-84
2021/11/22 07:09:46;;;;;;;8.70;7.20;;;8.70;99.90;;;;;;4938982;28;20490;-83
2021/11/22 07:12:14;;;;;;;8.10;7.10;;;8.80;99.90;;;;;;4936849;28;20475;-83
2021/11/22 07:14:43;;;;;;;9.80;7.13;;;8.60;99.90;;;;;;4941440;28;20476;-85
2021/11/22 07:17:11;;;;;;;7.90;6.30;;;8.40;99.90;;;;;;4940714;28;20972;-83
2021/11/22 07:19:38;;;;;;;9.83;7.90;;;8.50;99.90;;;;;;4935830;28;20484;-85
2021/11/22 07:22:09;;;;;;;9.37;6.70;;;8.30;99.90;;;;;;4938561;28;20956;-83
2021/11/22 07:24:40;;;;;;;10.03;6.37;;;8.20;99.90;;;;;;4937751;28;20487;-85
2021/11/22 07:27:09;;;;;;;8.13;7.33;;;8.10;99.90;;;;;;4936315;28;20547;-84
2021/11/22 07:29:41;;;;;;;7.27;6.57;;;8.10;99.90;;;;;;4938592;28;20483;-82
2021/11/22 07:32:31;;;;;;;8.17;7.37;;;8.30;99.90;;;;;;4953174;28;20950;-84
2021/11/22 07:35:27;;;;;;;8.97;6.90;;;8.40;99.90;;;;;;4937448;28;20495;-85
2021/11/22 07:37:54;;;;;;;11.17;7.70;;;8.20;99.90;;;;;;4944639;28;20581;-83
2021/11/22 07:40:23;;;;;;;7.73;6.93;;;8.20;99.90;;;;;;4940140;28;20489;-84
2021/11/22 07:42:51;;;;;;;9.17;7.77;;;8.40;99.90;;;;;;4949826;28;20582;-84
2021/11/22 07:45:19;;;;;;;10.20;7.40;;;8.30;99.90;;;;;;4947668;28;20502;-84
2021/11/22 07:47:46;;;;;;;7.63;6.93;;;8.20;99.90;;;;;;4948869;28;21204;-84
2021/11/22 07:50:30;;;;;;;8.03;7.23;;;8.40;99.90;;;;;;4935937;28;20471;-83
2021/11/22 07:52:58;;;;;;;8.90;8.00;;;8.40;99.90;;;;;;4935879;28;20471;-85
2021/11/22 07:55:25;;;;;;;7.70;6.90;;;8.30;99.90;;;;;;4954188;28;20974;-85
2021/11/22 07:57:53;;;;;;;10.80;7.40;;;8.50;99.90;;;;;;4953673;28;20453;-83
2021/11/22 08:00:25;;;;;;;8.60;7.60;;;8.40;99.90;;;;;;4948190;28;20520;-84
2021/11/22 08:02:51;;;;;;;8.67;7.80;;;8.40;99.90;;;;;;4956972;28;20456;-83
2021/11/22 08:05:19;;;;;;;8.73;6.60;;;8.50;99.90;;;;;;4952368;28;20485;-82
2021/11/22 08:07:46;;;;;;;6.80;6.10;;;8.50;99.90;;;;;;4937731;28;20450;-82
2021/11/22 08:12:52;;;;;;;8.93;6.90;;;8.40;99.90;;;;;;4951156;28;20431;-84
2021/11/22 08:15:20;;;;;;;7.70;6.90;;;8.70;99.90;;;;;;4937150;28;20474;-85
2021/11/22 08:17:48;;;;;;;6.67;6.03;;;8.70;99.90;;;;;;4950947;28;21758;-85
2021/11/22 08:20:18;;;;;;;6.60;5.87;;;8.70;99.90;;;;;;4950165;28;20628;-82
2021/11/22 08:22:45;;;;;;;7.07;6.37;;;9.00;99.90;;;;;;4953611;28;21030;-85
2021/11/22 08:25:13;;;;;;;7.23;6.53;;;8.80;99.90;;;;;;4953305;28;20486;-83
2021/11/22 08:27:46;;;;;;;6.00;5.37;;;9.10;99.90;;;;;;4952010;28;20482;-83
2021/11/22 08:30:17;;;;;;;6.17;5.57;;;9.10;99.20;;;;;;4959485;28;20464;-83
2021/11/22 08:32:46;;;;;;;5.93;5.33;;;8.70;99.30;;;;;;4966224;28;20459;-83
2021/11/22 08:35:12;;;;;;;5.67;5.17;;;8.80;99.60;;;;;;4945483;28;20472;-82
2021/11/22 08:37:40;;;;;;;5.60;4.97;;;8.50;99.60;;;;;;4946921;28;20758;-84
2021/11/22 08:40:11;;;;;;;5.60;5.10;;;8.60;99.90;;;;;;4949958;28;20901;-82
2021/11/22 08:42:41;;;;;;;5.67;4.67;;;8.70;99.90;;;;;;4937696;28;20469;-84
2021/11/22 08:45:15;;;;;;;10.73;4.67;;;8.70;99.90;;;;;;4937718;28;22161;-85
2021/11/22 08:47:42;;;;;;;5.70;5.20;;;8.80;99.90;;;;;;4956529;28;20470;-82
2021/11/22 08:50:11;;;;;;;5.03;4.57;;;9.30;99.60;;;;;;4955504;28;21286;-81
2021/11/22 08:52:38;;;;;;;5.83;5.30;;;9.40;98.30;;;;;;4849996;28;20470;-83
2021/11/22 08:55:08;;;;;;;5.53;5.10;;;9.50;97.10;;;;;;4941305;28;20463;-84
2021/11/22 08:57:44;;;;;;;6.10;4.87;;;9.50;97.00;;;;;;4937278;28;21120;-84
2021/11/22 09:00:34;;;;;;;4.90;4.50;;;9.30;97.10;;;;;;4952489;28;20572;-83
2021/11/22 09:03:13;;;;;;;4.93;4.50;;;9.20;97.30;;;;;;4955554;28;20590;-85
2021/11/22 09:05:45;;;;;;;5.40;4.90;;;9.10;97.60;;;;;;4952186;28;20573;-80
2021/11/22 09:08:16;;;;;;;5.93;4.00;;;9.20;97.20;;;;;;4933514;28;21643;-84
2021/11/22 09:10:46;;;;;;;5.70;5.10;;;9.00;97.50;;;;;;4952567;28;20495;-84
2021/11/22 09:13:19;;;;;;;5.83;5.30;;;9.10;97.90;;;;;;4957281;28;20472;-84
2021/11/22 09:15:52;;;;;;;5.13;4.70;;;8.90;98.40;;;;;;4963160;28;22481;-82
2021/11/22 09:18:19;;;;;;;6.00;5.17;;;9.00;98.90;;;;;;4959398;28;20584;-83
2021/11/22 09:20:53;;;;;;;5.57;4.80;;;9.00;98.80;;;;;;4946323;28;20534;-83
2021/11/22 09:23:24;;;;;;;5.40;4.90;;;8.90;98.30;;;;;;4952562;28;20438;-84
2021/11/22 09:25:52;;;;;;;6.43;5.80;;;9.10;98.20;;;;;;4955908;28;22224;-84
2021/11/22 09:28:26;;;;;;;5.93;5.10;;;9.20;97.80;;;;;;4940789;28;20456;-83
2021/11/22 09:30:55;;;;;;;6.30;5.70;;;9.30;97.50;;;;;;4937516;28;21081;-83
2021/11/22 09:33:30;;;;;;;5.13;4.73;;;9.10;97.60;;;;;;4950249;28;20459;-82
2021/11/22 09:35:59;;;;;;;7.47;5.73;;;9.20;97.80;;;;;;4956237;28;20889;-82
2021/11/22 09:38:29;;;;;;;6.63;5.80;;;9.10;97.80;;;;;;4939806;28;20920;-82
2021/11/22 09:40:57;;;;;;;6.50;5.70;;;9.10;97.90;;;;;;4954353;28;20851;-82
2021/11/22 09:43:37;;;;;;;6.47;5.97;;;9.00;97.90;;;;;;4941419;28;20470;-84
2021/11/22 09:46:15;;;;;;;5.80;4.63;;;9.00;98.00;;;;;;4941626;28;20488;-85
2021/11/22 09:48:42;;;;;;;6.27;5.67;;;9.10;98.10;;;;;;4938842;28;21377;-84
2021/11/22 09:51:16;;;;;;;5.33;4.93;;;9.10;98.10;;;;;;4941012;28;20478;-83
2021/11/22 09:53:50;;;;;;;6.37;5.60;;;9.30;97.70;;;;;;4937243;28;20467;-84
2021/11/22 09:56:16;;;;;;;5.40;4.57;;;9.20;97.20;;;;;;4940297;28;20457;-83
2021/11/22 09:58:44;;;;;;;4.47;4.07;;;9.30;97.70;;;;;;4936789;28;21023;-82
2021/11/22 10:01:14;;;;;;;4.80;4.40;;;9.30;97.50;;;;;;4953191;28;20482;-82
2021/11/22 10:03:57;;;;;;;4.93;4.50;;;9.50;97.50;;;;;;4938875;28;20461;-84
2021/11/22 10:06:49;;;;;;;4.93;4.53;;;9.60;97.00;;;;;;4949683;28;21248;-83
2021/11/22 10:09:40;;;;;;;4.03;3.63;;;9.50;97.20;;;;;;4937068;28;20455;-83
2021/11/22 10:12:13;;;;;;;4.30;3.90;;;9.50;96.90;;;;;;4951773;28;20557;-84
2021/11/22 10:14:41;;;;;;;4.43;4.00;;;9.10;96.90;;;;;;4951180;28;20535;-82
2021/11/22 10:17:28;;;;;;;6.73;4.10;;;9.30;97.30;;;;;;4937067;28;20886;-81
2021/11/22 10:20:08;;;;;;;4.57;4.17;;;9.30;97.10;;;;;;4949333;28;21167;-84
2021/11/22 10:23:00;;;;;;;4.00;3.60;;;9.30;97.40;;;;;;4940668;28;20457;-85
2021/11/22 10:25:34;;;;;;;5.70;3.50;;;9.30;97.50;;;;;;4951088;28;20487;-86
2021/11/22 10:28:15;;;;;;;4.03;3.67;;;9.50;97.10;;;;;;4971941;28;20455;-84
2021/11/22 10:30:49;;;;;;;3.60;3.30;;;9.60;96.20;;;;;;4935569;28;20489;-83
2021/11/22 10:33:23;;;;;;;5.07;3.50;;;9.50;96.40;;;;;;4957567;28;20462;-83
2021/11/22 10:35:53;;;;;;;4.47;3.80;;;9.60;96.20;;;;;;4938989;28;20481;-85
2021/11/22 10:38:26;;;;;;;3.53;3.03;;;9.70;96.10;;;;;;4935740;28;20463;-84
2021/11/22 10:41:04;;;;;;;3.77;3.47;;;10.00;94.60;;;;;;4940995;28;20491;-81
2021/11/22 10:43:35;;;;;;;3.50;3.07;;;9.90;94.60;;;;;;4939543;28;21059;-83
2021/11/22 10:46:08;;;;;;;3.30;3.10;;;9.80;95.00;;;;;;4950605;28;20570;-83
2021/11/22 10:48:37;;;;;;;4.43;2.83;;;9.70;94.70;;;;;;4936218;28;20925;-84
2021/11/22 10:51:12;;;;;;;3.63;3.40;;;9.50;94.80;;;;;;4936651;28;20483;-83
2021/11/22 10:53:52;;;;;;;4.30;3.70;;;9.40;95.20;;;;;;4951453;28;20440;-83
2021/11/22 10:56:25;;;;;;;4.13;3.80;;;9.40;95.40;;;;;;4961647;28;20431;-84
2021/11/22 10:59:05;;;;;;;4.73;3.73;;;9.30;95.30;;;;;;4962636;28;20491;-84
2021/11/22 11:01:34;;;;;;;3.00;2.80;;;9.50;95.30;;;;;;4961899;28;20445;-84
2021/11/22 11:04:11;;;;;;;3.30;2.60;;;9.40;94.90;;;;;;4978827;28;20497;-83
2021/11/22 11:06:51;;;;;;;2.73;2.53;;;9.40;94.60;;;;;;4964915;28;20515;-83
2021/11/22 11:09:25;;;;;;;3.20;2.90;;;9.20;94.40;;;;;;4938930;28;20539;-83
2021/11/22 11:11:55;;;;;;;3.53;3.33;;;9.40;94.40;;;;;;4953282;28;20458;-83
2021/11/22 11:14:23;;;;;;;5.63;3.10;;;9.30;94.30;;;;;;4949759;28;20456;-84
2021/11/22 11:16:49;;;;;;;3.57;3.27;;;9.30;94.20;;;;;;4948502;28;21936;-83
2021/11/22 11:19:18;;;;;;;3.10;2.90;;;9.30;94.40;;;;;;4958066;28;20470;-84
2021/11/22 11:21:50;;;;;;;3.30;3.00;;;9.40;94.40;;;;;;4952325;28;20447;-84
2021/11/22 11:24:18;;;;;;;3.47;3.17;;;9.60;94.50;;;;;;4955904;28;20455;-85
2021/11/22 11:26:47;;;;;;;3.23;2.93;;;9.30;94.10;;;;;;4952820;28;20485;-83
2021/11/22 11:29:14;;;;;;;3.57;3.37;;;9.40;94.00;;;;;;4944577;28;20456;-84
2021/11/22 11:31:41;;;;;;;4.23;2.97;;;9.40;94.10;;;;;;4943002;28;20458;-85
2021/11/22 11:34:11;;;;;;;4.10;3.20;;;9.30;94.00;;;;;;4959435;28;20467;-85
2021/11/22 11:37:00;;;;;;;3.13;2.93;;;9.50;93.80;;;;;;4938888;28;20485;-84
2021/11/22 11:39:56;;;;;;;2.80;2.00;;;9.50;93.40;;;;;;4937778;28;22154;-83
2021/11/22 11:42:42;;;;;;;2.50;2.30;;;9.50;93.30;;;;;;4930492;28;21028;-83
2021/11/22 11:45:29;;;;;;;2.73;2.53;;;9.50;93.10;;;;;;4937377;28;20471;-84
2021/11/22 11:48:07;;;;;;;4.23;2.40;;;9.40;92.90;;;;;;4938429;28;20466;-83
2021/11/22 11:50:38;;;;;;;4.43;2.90;;;9.70;93.20;;;;;;4936216;28;22459;-83
2021/11/22 11:53:14;;;;;;;3.00;2.70;;;9.70;92.80;;;;;;4948475;28;20454;-83
2021/11/22 11:55:43;;;;;;;3.50;3.30;;;10.00;92.00;;;;;;4933987;28;21078;-83
2021/11/22 11:58:19;;;;;;;2.87;2.63;;;10.00;91.80;;;;;;4955885;28;20455;-83
2021/11/22 12:01:02;;;;;;;3.53;3.23;;;10.00;92.00;;;;;;4935826;28;20481;-84
2021/11/22 12:03:51;;;;;;;4.70;4.30;;;10.00;92.40;;;;;;4955243;28;20458;-84
2021/11/22 12:06:45;;;;;;;4.63;4.20;;;10.10;92.20;;;;;;4942155;28;21191;-82
2021/11/22 12:09:32;;;;;;;4.67;3.97;;;9.90;93.30;;;;;;4943266;28;20451;-83
2021/11/22 12:12:31;;;;;;;5.03;3.50;;;10.10;92.70;;;;;;4952247;28;20467;-84
2021/11/22 12:15:25;;;;;;;3.90;3.53;;;10.10;92.40;;;;;;4933959;28;20463;-83
2021/11/22 12:18:34;;;;;;;6.87;3.30;;;10.20;91.60;;;;;;4940708;28;20447;-83
2021/11/22 12:21:22;;;;;;;4.40;3.07;;;10.10;91.10;;;;;;4943382;28;20875;-84
2021/11/22 12:23:52;;;;;;;5.37;3.27;;;9.90;91.90;;;;;;4950806;28;20467;-83
2021/11/22 12:26:35;;;;;;;3.47;3.17;;;9.90;92.40;;;;;;4946993;28;20540;-82
2021/11/22 12:29:06;;;;;;;3.40;3.10;;;9.90;92.20;;;;;;4962784;28;20458;-85
2021/11/22 12:31:45;;;;;;;3.03;2.73;;;9.70;92.20;;;;;;4943618;28;22125;-83
2021/11/22 12:34:34;;;;;;;4.30;2.60;;;9.60;92.60;;;;;;4953410;28;20533;-83
2021/11/22 12:37:20;;;;;;;2.77;2.57;;;9.60;92.60;;;;;;4947179;28;20470;-84
2021/11/22 12:39:47;;;;;;;2.90;2.70;;;9.50;92.60;;;;;;4949560;28;20467;-83
2021/11/22 12:42:17;;;;;;;3.03;2.73;;;9.80;92.20;;;;;;4955839;28;20785;-82
2021/11/22 12:44:59;;;;;;;3.30;2.60;;;9.90;91.80;;;;;;4954522;28;20568;-81
2021/11/22 12:47:28;;;;;;;2.93;2.67;;;9.60;92.00;;;;;;4952206;28;20571;-85
2021/11/22 12:50:12;;;;;;;1.80;1.70;;;9.70;91.80;;;;;;4954442;28;20968;-83
2021/11/22 12:52:39;;;;;;;2.30;2.20;;;9.50;91.10;;;;;;4954148;28;20467;-85
2021/11/22 12:55:18;;;;;;;3.00;2.20;;;9.60;90.60;;;;;;4959200;28;20483;-86
2021/11/22 12:57:50;;;;;;;1.97;1.83;;;9.80;90.50;;;;;;4967636;28;22002;-86
2021/11/22 13:00:37;;;;;;;2.17;1.97;;;10.10;89.00;;;;;;4952880;28;20468;-82
2021/11/22 13:03:13;;;;;;;2.50;2.30;;;10.10;89.10;;;;;;4954866;28;20523;-84
2021/11/22 13:06:15;;;;;;;2.00;1.87;;;9.90;90.60;;;;;;4953992;28;20481;-85
2021/11/22 13:08:45;;;;;;;1.87;1.77;;;9.90;90.70;;;;;;4951894;28;20443;-83
2021/11/22 13:11:29;;;;;;;2.50;1.40;;;9.80;91.00;;;;;;4956567;28;21047;-84
2021/11/22 13:14:05;;;;;;;1.63;1.53;;;9.70;90.50;;;;;;4958910;28;20499;-82
2021/11/22 13:16:36;;;;;;;1.80;1.70;;;9.60;90.60;;;;;;4953681;28;20528;-84
2021/11/22 13:19:11;;;;;;;1.83;1.70;;;9.90;89.30;;;;;;4953726;28;20532;-83
2021/11/22 13:21:50;;;;;;;1.37;1.27;;;10.00;88.00;;;;;;4960156;28;20463;-85
2021/11/22 13:24:28;;;;;;;1.50;1.40;;;9.90;89.30;;;;;;4979316;28;20543;-85
2021/11/22 13:27:01;;;;;;;1.17;1.07;;;9.80;88.80;;;;;;4965021;28;20499;-83
2021/11/22 13:29:31;;;;;;;1.50;1.40;;;9.90;87.70;;;;;;4956226;28;20499;-83
2021/11/22 13:32:05;;;;;;;1.57;1.30;;;9.80;87.30;;;;;;4950435;28;20946;-85
2021/11/22 13:35:13;;;;;;;;;;;;;;;;;;;;;
2021/11/22 13:38:40;;;;;;;1.13;1.13;;;9.80;87.60;;;;;;4962364;28;20441;-84
2021/11/22 13:41:29;;;;;;;1.10;0.83;;;9.80;86.40;;;;;;4934234;28;20554;-83
2021/11/22 13:44:15;;;;;;;1.10;1.10;;;9.60;87.10;;;;;;4947076;28;20773;-83
2021/11/22 13:47:07;;;;;;;2.20;1.27;;;9.40;88.00;;;;;;4945492;28;20517;-82
2021/11/22 13:50:03;;;;;;;;;;;;;;;;;;;;;
2021/11/22 13:53:16;;;;;;;1.33;1.23;;;9.90;87.00;;;;;;4953688;28;20451;-83
2021/11/22 13:56:27;;;;;;;1.37;1.20;;;9.80;85.10;;;;;;4960738;28;20979;-83
2021/11/22 13:59:48;;;;;;;1.20;1.10;;;9.60;84.30;;;;;;4959351;28;20931;-84
2021/11/22 14:02:44;;;;;;;1.83;1.53;;;9.60;84.80;;;;;;4941920;28;20468;-82
2021/11/22 14:05:32;;;;;;;1.03;0.93;;;9.50;85.00;;;;;;4953001;28;20456;-83